createdAt,value
2023-01-12T00:01:40.006Z,11.30
2023-01-12T00:04:06.979Z,9.18
2023-01-12T00:06:34.291Z,9.95
2023-01-12T00:09:06.534Z,11.73
2023-01-12T00:11:33.530Z,6.97
2023-01-12T00:14:00.199Z,10.00
2023-01-12T00:16:36.670Z,9.23
2023-01-12T00:19:33.080Z,11.10
2023-01-12T00:22:19.310Z,14.20
2023-01-12T00:24:48.176Z,9.82
2023-01-12T00:27:17.741Z,12.10
2023-01-12T00:29:44.370Z,11.57
2023-01-12T00:32:18.661Z,10.77
2023-01-12T00:34:45.509Z,10.55
2023-01-12T00:37:12.631Z,13.25
2023-01-12T00:39:42.896Z,7.47
2023-01-12T00:42:31.841Z,6.78
2023-01-12T00:45:17.455Z,10.23
2023-01-12T00:47:44.137Z,10.80
2023-01-12T00:50:11.006Z,12.73
2023-01-12T00:52:37.766Z,12.50
2023-01-12T00:55:04.900Z,11.18
2023-01-12T00:57:31.536Z,9.65
2023-01-12T01:00:00.507Z,9.20
2023-01-12T01:02:28.097Z,8.57
2023-01-12T01:04:55.013Z,10.55
2023-01-12T01:07:21.923Z,9.68
2023-01-12T01:09:49.505Z,14.55
2023-01-12T01:12:16.336Z,9.35
2023-01-12T01:14:43.201Z,9.95
2023-01-12T01:17:09.818Z,10.00
2023-01-12T01:19:37.113Z,11.98
2023-01-12T01:22:04.125Z,12.57
2023-01-12T01:24:30.794Z,17.27
2023-01-12T01:26:57.422Z,10.52
2023-01-12T01:29:24.208Z,7.32
2023-01-12T01:31:51.142Z,16.83
2023-01-12T01:34:18.066Z,8.93
2023-01-12T01:36:44.657Z,10.45
2023-01-12T01:39:11.337Z,13.25
2023-01-12T01:41:38.502Z,10.88
2023-01-12T01:44:07.347Z,7.80
2023-01-12T01:46:53.533Z,10.05
2023-01-12T01:49:37.287Z,13.63
2023-01-12T01:52:08.094Z,12.43
2023-01-12T01:54:38.182Z,11.07
2023-01-12T01:57:05.965Z,10.77
2023-01-12T01:59:35.160Z,8.55
2023-01-12T02:02:02.828Z,9.30
2023-01-12T02:04:31.070Z,10.93
2023-01-12T02:06:57.893Z,9.90
2023-01-12T02:09:26.543Z,10.85
2023-01-12T02:12:15.638Z,13.80
2023-01-12T02:15:03.472Z,11.18
2023-01-12T02:18:22.125Z,15.10
2023-01-12T02:21:03.647Z,16.83
2023-01-12T02:23:59.676Z,13.73
2023-01-12T02:26:43.989Z,15.15
2023-01-12T02:32:15.614Z,15.07
2023-01-12T02:34:42.122Z,20.00
2023-01-12T02:37:46.090Z,14.60
2023-01-12T02:40:24.016Z,9.65
2023-01-12T02:43:15.441Z,14.07
2023-01-12T02:46:34.644Z,12.80
2023-01-12T02:49:08.791Z,11.95
2023-01-12T02:54:11.128Z,15.55
2023-01-12T02:56:49.926Z,10.25
2023-01-12T02:59:21.576Z,14.07
2023-01-12T03:01:51.323Z,8.70
2023-01-12T03:04:19.599Z,10.70
2023-01-12T03:07:06.836Z,11.25
2023-01-12T03:09:43.805Z,11.05
2023-01-12T03:12:17.055Z,11.80
2023-01-12T03:14:48.765Z,15.10
2023-01-12T03:17:24.557Z,6.07
2023-01-12T03:19:53.199Z,9.38
2023-01-12T03:22:20.284Z,9.77
2023-01-12T03:24:50.928Z,14.50
2023-01-12T03:27:23.522Z,7.93
2023-01-12T03:30:00.213Z,7.47
2023-01-12T03:32:27.259Z,6.53
2023-01-12T03:34:54.640Z,8.40
2023-01-12T03:37:34.163Z,9.32
2023-01-12T03:40:24.077Z,5.95
2023-01-12T03:43:16.413Z,8.07
2023-01-12T03:45:52.964Z,10.60
2023-01-12T03:48:27.677Z,6.05
2023-01-12T03:50:59.354Z,6.65
2023-01-12T03:53:26.547Z,6.75
2023-01-12T03:55:56.676Z,6.85
2023-01-12T03:58:24.350Z,8.50
2023-01-12T04:00:51.478Z,10.70
2023-01-12T04:03:18.524Z,8.25
2023-01-12T04:05:45.780Z,8.52
2023-01-12T04:08:15.869Z,12.18
2023-01-12T04:10:42.603Z,6.00
2023-01-12T04:13:09.286Z,6.75
2023-01-12T04:15:42.703Z,8.30
2023-01-12T04:18:13.021Z,7.33
2023-01-12T04:20:40.546Z,9.27
2023-01-12T04:23:07.904Z,11.35
2023-01-12T04:25:34.801Z,8.88
2023-01-12T04:28:04.761Z,8.77
2023-01-12T04:30:32.885Z,6.47
2023-01-12T04:33:00.998Z,8.52
2023-01-12T04:35:27.982Z,7.53
2023-01-12T04:37:54.999Z,8.43
2023-01-12T04:40:21.738Z,7.97
2023-01-12T04:43:08.305Z,6.97
2023-01-12T04:45:39.077Z,7.15
2023-01-12T04:48:09.617Z,7.15
2023-01-12T04:50:37.317Z,7.50
2023-01-12T04:53:06.320Z,8.40
2023-01-12T04:55:38.877Z,8.27
2023-01-12T04:58:05.588Z,8.30
2023-01-12T05:00:32.267Z,8.70
2023-01-12T05:03:02.379Z,6.28
2023-01-12T05:05:30.640Z,6.03
2023-01-12T05:08:20.574Z,5.90
2023-01-12T05:10:55.106Z,9.73
2023-01-12T05:13:22.390Z,9.50
2023-01-12T05:15:49.315Z,6.20
2023-01-12T05:18:16.113Z,8.95
2023-01-12T05:20:43.211Z,7.85
2023-01-12T05:23:09.915Z,11.07
2023-01-12T05:25:36.714Z,6.28
2023-01-12T05:28:03.742Z,9.10
2023-01-12T05:30:31.953Z,5.13
2023-01-12T05:33:00.316Z,13.27
2023-01-12T05:35:26.964Z,9.98
2023-01-12T05:37:56.305Z,8.85
2023-01-12T05:40:23.025Z,6.18
2023-01-12T05:43:11.408Z,9.85
2023-01-12T05:45:38.450Z,7.05
2023-01-12T05:48:05.723Z,5.68
2023-01-12T05:50:33.232Z,8.23
2023-01-12T05:52:59.973Z,6.18
2023-01-12T05:55:26.871Z,8.35
2023-01-12T05:57:53.551Z,8.18
2023-01-12T06:00:20.448Z,7.25
2023-01-12T06:02:47.174Z,7.65
2023-01-12T06:05:14.006Z,9.05
2023-01-12T06:07:40.726Z,7.75
2023-01-12T06:10:08.194Z,7.85
2023-01-12T06:12:53.598Z,8.30
2023-01-12T06:15:20.215Z,10.95
2023-01-12T06:17:47.200Z,8.68
2023-01-12T06:20:17.599Z,9.13
2023-01-12T06:22:45.041Z,6.65
2023-01-12T06:25:12.679Z,9.00
2023-01-12T06:27:39.944Z,6.90
2023-01-12T06:30:07.668Z,7.28
2023-01-12T06:32:34.948Z,10.20
2023-01-12T06:35:14.148Z,6.65
2023-01-12T06:37:45.282Z,9.32
2023-01-12T06:40:13.147Z,3.83
2023-01-12T06:42:42.343Z,7.15
2023-01-12T06:45:10.808Z,8.10
2023-01-12T06:47:59.330Z,9.45
2023-01-12T06:50:27.029Z,5.13
2023-01-12T06:52:55.828Z,9.93
2023-01-12T06:55:22.946Z,8.40
2023-01-12T06:57:49.850Z,9.18
2023-01-12T07:00:16.730Z,3.88
2023-01-12T07:02:43.459Z,7.95
2023-01-12T07:05:10.144Z,10.13
2023-01-12T07:07:39.979Z,6.10
2023-01-12T07:10:07.298Z,7.82
2023-01-12T07:12:33.990Z,9.75
2023-01-12T07:15:00.595Z,8.63
2023-01-12T07:17:27.288Z,7.57
2023-01-12T07:19:54.052Z,6.25
2023-01-12T07:22:20.991Z,5.57
2023-01-12T07:24:47.620Z,10.32
2023-01-12T07:27:14.402Z,8.43
2023-01-12T07:29:41.380Z,8.00
2023-01-12T07:32:08.227Z,5.43
2023-01-12T07:34:34.950Z,7.07
2023-01-12T07:37:01.666Z,6.38
2023-01-12T07:39:28.316Z,6.55
2023-01-12T07:42:13.727Z,9.05
2023-01-12T07:44:40.636Z,5.93
2023-01-12T07:47:07.512Z,7.65
2023-01-12T07:49:34.224Z,7.90
2023-01-12T07:52:00.937Z,5.93
2023-01-12T07:54:27.723Z,9.93
2023-01-12T07:56:54.467Z,10.35
2023-01-12T07:59:21.378Z,7.00
2023-01-12T08:01:48.151Z,8.10
2023-01-12T08:04:15.175Z,4.75
2023-01-12T08:06:41.956Z,4.53
2023-01-12T08:09:08.750Z,5.72
2023-01-12T08:11:35.673Z,6.97
2023-01-12T08:14:03.286Z,9.07
2023-01-12T08:16:34.193Z,3.08
2023-01-12T08:19:03.840Z,4.45
2023-01-12T08:21:34.356Z,5.70
2023-01-12T08:24:02.374Z,5.30
2023-01-12T08:26:33.211Z,4.65
2023-01-12T08:29:07.307Z,6.35
2023-01-12T08:31:34.487Z,4.60
2023-01-12T08:34:01.186Z,4.55
2023-01-12T08:36:30.229Z,3.95
2023-01-12T08:38:57.977Z,3.67
2023-01-12T08:41:33.878Z,2.13
2023-01-12T08:44:10.406Z,4.45
2023-01-12T08:46:39.809Z,6.50
2023-01-12T08:49:11.567Z,7.93
2023-01-12T08:51:43.976Z,3.30
2023-01-12T08:54:11.906Z,4.35
2023-01-12T08:56:38.793Z,7.47
2023-01-12T08:59:05.596Z,5.68
2023-01-12T09:01:32.656Z,4.95
2023-01-12T09:03:59.809Z,4.13
2023-01-12T09:06:37.734Z,3.55
2023-01-12T09:09:06.663Z,3.83
2023-01-12T09:11:33.253Z,3.72
2023-01-12T09:14:00.076Z,4.40
2023-01-12T09:16:29.234Z,1.95
2023-01-12T09:18:56.911Z,2.88
2023-01-12T09:21:25.215Z,2.28
2023-01-12T09:23:55.577Z,5.70
2023-01-12T09:26:31.622Z,7.47
2023-01-12T09:29:02.473Z,3.30
2023-01-12T09:31:30.694Z,2.38
2023-01-12T09:33:57.748Z,4.63
2023-01-12T09:36:29.678Z,3.40
2023-01-12T09:38:57.299Z,2.60
2023-01-12T09:41:46.176Z,2.08
2023-01-12T09:44:41.679Z,2.40
2023-01-12T09:47:33.182Z,2.65
2023-01-12T09:50:21.449Z,2.63
2023-01-12T09:52:55.008Z,4.38
2023-01-12T09:55:27.057Z,3.47
2023-01-12T09:58:18.736Z,1.98
2023-01-12T10:00:53.056Z,1.98
2023-01-12T10:03:27.335Z,1.58
2023-01-12T10:08:38.523Z,2.30
2023-01-12T10:11:12.518Z,1.92
2023-01-12T10:14:11.979Z,2.08
2023-01-12T10:17:16.551Z,1.70
2023-01-12T10:19:55.473Z,1.50
2023-01-12T10:22:38.600Z,10.90
2023-01-12T10:25:15.409Z,1.95
2023-01-12T10:27:44.555Z,1.25
2023-01-12T10:30:18.017Z,2.40
2023-01-12T10:32:45.201Z,0.97
2023-01-12T10:35:17.267Z,1.50
2023-01-12T10:37:49.935Z,2.05
2023-01-12T10:40:22.224Z,2.40
2023-01-12T10:43:24.245Z,1.27
2023-01-12T10:46:04.670Z,2.63
2023-01-12T10:48:31.533Z,2.15
2023-01-12T10:51:03.162Z,1.17
2023-01-12T10:53:40.948Z,1.08
2023-01-12T10:56:13.224Z,6.15
2023-01-12T10:58:40.999Z,1.23
2023-01-12T11:01:08.068Z,1.15
2023-01-12T11:03:41.034Z,0.93
2023-01-12T11:06:34.264Z,1.98
2023-01-12T11:09:18.343Z,2.47
2023-01-12T11:11:45.180Z,1.00
2023-01-12T11:14:27.037Z,1.30
2023-01-12T11:16:54.324Z,2.35
2023-01-12T11:19:30.009Z,1.30
2023-01-12T11:22:02.459Z,0.63
2023-01-12T11:24:41.724Z,1.65
2023-01-12T11:27:36.354Z,1.67
2023-01-12T11:30:32.326Z,0.70
2023-01-12T11:33:18.561Z,1.48
2023-01-12T11:35:53.411Z,0.98
2023-01-12T11:38:26.123Z,0.50
2023-01-12T11:40:56.937Z,1.45
2023-01-12T11:43:49.852Z,1.13
2023-01-12T11:46:29.192Z,2.08
2023-01-12T11:49:16.412Z,0.80
2023-01-12T11:51:43.255Z,1.30
2023-01-12T11:54:14.760Z,1.02
2023-01-12T11:57:07.351Z,1.83
2023-01-12T12:00:01.292Z,0.82
2023-01-12T12:02:38.273Z,1.10
2023-01-12T12:05:48.709Z,0.68
2023-01-12T12:08:42.975Z,0.75
2023-01-12T12:11:36.037Z,1.15
2023-01-12T12:14:34.234Z,1.85
2023-01-12T12:17:11.776Z,1.20
2023-01-12T12:20:00.808Z,0.65
2023-01-12T12:22:37.356Z,0.90
2023-01-12T12:25:19.258Z,1.52
2023-01-12T12:28:23.364Z,2.70
2023-01-12T12:31:24.927Z,1.48
2023-01-12T12:34:33.836Z,0.88
2023-01-12T12:37:27.030Z,0.93
2023-01-12T12:39:58.295Z,0.80
2023-01-12T12:43:10.055Z,1.02
2023-01-12T12:45:47.848Z,1.17
2023-01-12T12:48:38.108Z,1.73
2023-01-12T12:51:07.751Z,0.80
2023-01-12T12:53:46.363Z,1.17
2023-01-12T12:56:17.820Z,1.10
2023-01-12T12:58:55.439Z,0.93
2023-01-12T13:01:43.745Z,0.73
2023-01-12T13:04:11.346Z,0.52
2023-01-12T13:06:44.468Z,1.15
2023-01-12T13:09:37.642Z,1.02
2023-01-12T13:12:34.330Z,0.95
2023-01-12T13:15:24.591Z,0.40
2023-01-12T13:17:53.530Z,1.45
2023-01-12T13:20:51.010Z,1.13
2023-01-12T13:23:41.895Z,0.93
2023-01-12T13:26:24.053Z,1.30
2023-01-12T13:29:31.807Z,0.63
2023-01-12T13:32:26.227Z,0.90
2023-01-12T13:34:53.141Z,1.52
2023-01-12T13:37:52.517Z,2.55
2023-01-12T13:40:30.752Z,1.05
2023-01-12T13:43:17.400Z,1.85
2023-01-12T13:46:05.598Z,0.98
2023-01-12T13:48:35.642Z,1.95
2023-01-12T13:51:17.243Z,1.25
2023-01-12T13:53:43.830Z,1.40
2023-01-12T13:56:20.498Z,1.23
2023-01-12T13:58:50.587Z,2.28
2023-01-12T14:01:27.893Z,1.15
2023-01-12T14:04:23.259Z,0.85
2023-01-12T14:07:30.891Z,0.85
2023-01-12T14:10:25.856Z,1.85
2023-01-12T14:13:10.748Z,3.25
2023-01-12T14:16:01.359Z,2.35
2023-01-12T14:18:49.002Z,2.97
2023-01-12T14:24:15.482Z,3.55
2023-01-12T14:26:42.142Z,2.67
2023-01-12T14:29:11.513Z,2.90
2023-01-12T14:31:40.667Z,4.20
2023-01-12T14:34:38.795Z,2.53
2023-01-12T14:37:10.701Z,1.17
2023-01-12T14:39:41.317Z,1.17
2023-01-12T14:42:37.062Z,1.45
2023-01-12T14:45:39.133Z,0.85
2023-01-12T14:48:24.217Z,1.10
2023-01-12T14:51:18.918Z,1.05
2023-01-12T14:53:47.879Z,2.22
2023-01-12T14:56:26.963Z,0.40
2023-01-12T14:58:54.229Z,1.20
2023-01-12T15:01:33.491Z,1.52
2023-01-12T15:04:00.509Z,0.73
2023-01-12T15:06:27.348Z,0.68
2023-01-12T15:09:00.518Z,1.42
2023-01-12T15:11:35.193Z,0.40
2023-01-12T15:14:07.903Z,0.68
2023-01-12T15:16:54.171Z,0.40
2023-01-12T15:19:39.461Z,0.75
2023-01-12T15:22:27.492Z,1.10
2023-01-12T15:25:14.349Z,3.40
2023-01-12T15:27:40.991Z,1.25
2023-01-12T15:30:10.442Z,0.80
2023-01-12T15:32:48.938Z,50.63
2023-01-12T15:35:21.354Z,4.80
2023-01-12T15:37:48.213Z,0.80
2023-01-12T15:40:15.958Z,1.77
2023-01-12T15:42:42.785Z,1.42
2023-01-12T15:45:30.141Z,1.75
2023-01-12T15:47:56.870Z,1.05
2023-01-12T15:50:23.952Z,1.98
2023-01-12T15:52:51.418Z,1.05
2023-01-12T15:55:20.010Z,0.82
2023-01-12T15:57:47.752Z,1.00
2023-01-12T16:00:16.399Z,2.35
2023-01-12T16:02:45.707Z,1.05
2023-01-12T16:05:13.498Z,1.75
2023-01-12T16:07:48.365Z,1.08
2023-01-12T16:10:16.797Z,3.28
2023-01-12T16:12:50.642Z,2.72
2023-01-12T16:15:20.114Z,3.85
2023-01-12T16:17:47.207Z,1.38
2023-01-12T16:20:16.923Z,1.58
2023-01-12T16:22:44.178Z,2.47
2023-01-12T16:25:11.126Z,1.70
2023-01-12T16:27:38.584Z,3.60
2023-01-12T16:30:07.106Z,4.57
2023-01-12T16:32:33.924Z,6.15
2023-01-12T16:35:00.519Z,6.15
2023-01-12T16:37:30.103Z,3.17
2023-01-12T16:39:56.803Z,3.40
2023-01-12T16:42:23.425Z,2.33
2023-01-12T16:44:50.312Z,1.92
2023-01-12T16:47:19.282Z,2.72
2023-01-12T16:49:51.471Z,3.05
2023-01-12T16:52:19.710Z,3.35
2023-01-12T16:54:46.341Z,4.65
2023-01-12T16:57:15.214Z,0.90
2023-01-12T16:59:42.111Z,2.47
2023-01-12T17:02:11.875Z,1.45
2023-01-12T17:04:38.919Z,2.47
2023-01-12T17:07:05.879Z,0.93
2023-01-12T17:09:37.053Z,1.65
2023-01-12T17:12:04.014Z,1.63
2023-01-12T17:14:33.667Z,1.42
2023-01-12T17:17:04.124Z,1.52
2023-01-12T17:19:32.453Z,1.08
2023-01-12T17:22:01.676Z,2.42
2023-01-12T17:24:30.074Z,2.22
2023-01-12T17:26:57.107Z,2.33
2023-01-12T17:29:25.777Z,4.88
2023-01-12T17:31:53.824Z,3.05
2023-01-12T17:34:21.233Z,3.17
2023-01-12T17:36:52.404Z,2.58
2023-01-12T17:39:19.175Z,4.90
2023-01-12T17:42:04.677Z,2.17
2023-01-12T17:44:31.835Z,14.73
2023-01-12T17:46:58.478Z,12.32
2023-01-12T17:49:25.162Z,3.70
2023-01-12T17:51:51.990Z,1.40
2023-01-12T17:54:18.702Z,1.65
2023-01-12T17:56:45.796Z,1.50
2023-01-12T17:59:17.930Z,2.90
2023-01-12T18:01:45.378Z,1.60
2023-01-12T18:04:12.529Z,3.47
2023-01-12T18:06:39.896Z,3.72
2023-01-12T18:09:06.760Z,2.42
2023-01-12T18:11:33.672Z,1.80
2023-01-12T18:14:01.406Z,1.90
2023-01-12T18:16:29.023Z,2.42
2023-01-12T18:18:55.962Z,6.35
2023-01-12T18:21:25.321Z,4.28
2023-01-12T18:23:52.866Z,2.60
2023-01-12T18:26:25.322Z,2.45
2023-01-12T18:28:56.747Z,2.53
2023-01-12T18:31:26.117Z,1.08
2023-01-12T18:33:58.597Z,1.35
2023-01-12T18:36:25.730Z,7.35
2023-01-12T18:38:54.133Z,6.22
2023-01-12T18:41:40.478Z,1.80
2023-01-12T18:44:07.693Z,1.83
2023-01-12T18:46:54.660Z,1.65
2023-01-12T18:49:22.944Z,2.85
2023-01-12T18:52:08.306Z,2.30
2023-01-12T18:54:44.188Z,1.58
2023-01-12T18:57:12.117Z,1.25
2023-01-12T18:59:41.639Z,1.95
2023-01-12T19:02:11.665Z,1.75
2023-01-12T19:04:44.189Z,2.35
2023-01-12T19:07:13.139Z,4.18
2023-01-12T19:09:39.887Z,2.25
2023-01-12T19:12:06.805Z,0.70
2023-01-12T19:14:51.991Z,3.53
2023-01-12T19:17:27.942Z,1.67
2023-01-12T19:19:54.958Z,2.00
2023-01-12T19:22:40.207Z,2.95
2023-01-12T19:25:25.825Z,2.28
2023-01-12T19:28:11.073Z,1.85
2023-01-12T19:30:38.580Z,3.83
2023-01-12T19:33:08.684Z,2.88
2023-01-12T19:35:36.892Z,0.77
2023-01-12T19:38:04.109Z,0.70
2023-01-12T19:40:44.352Z,0.75
2023-01-12T19:43:19.177Z,1.88
2023-01-12T19:45:48.154Z,0.75
2023-01-12T19:48:16.423Z,0.98
2023-01-12T19:50:44.305Z,0.60
2023-01-12T19:53:25.193Z,0.70
2023-01-12T19:55:52.399Z,1.80
2023-01-12T19:58:22.039Z,1.08
2023-01-12T20:00:49.725Z,0.93
2023-01-12T20:03:18.714Z,0.43
2023-01-12T20:05:47.659Z,1.23
2023-01-12T20:08:15.350Z,0.80
2023-01-12T20:10:42.266Z,0.68
2023-01-12T20:13:10.536Z,1.15
2023-01-12T20:15:40.921Z,0.65
2023-01-12T20:18:08.818Z,1.10
2023-01-12T20:20:35.942Z,1.08
2023-01-12T20:23:02.652Z,1.92
2023-01-12T20:25:29.464Z,3.50
2023-01-12T20:27:56.066Z,2.03
2023-01-12T20:30:37.068Z,2.35
2023-01-12T20:33:05.593Z,1.58
2023-01-12T20:35:32.720Z,2.80
2023-01-12T20:37:59.302Z,1.42
2023-01-12T20:40:26.129Z,2.60
2023-01-12T20:42:52.903Z,2.72
2023-01-12T20:45:19.547Z,0.82
2023-01-12T20:47:46.159Z,0.60
2023-01-12T20:50:14.274Z,1.25
2023-01-12T20:52:41.775Z,1.13
2023-01-12T20:55:08.791Z,0.80
2023-01-12T20:57:39.172Z,2.13
2023-01-12T21:00:07.981Z,2.15
2023-01-12T21:02:35.985Z,2.08
2023-01-12T21:05:03.177Z,1.55
2023-01-12T21:07:30.208Z,1.98
2023-01-12T21:09:56.817Z,1.75
2023-01-12T21:12:25.280Z,1.00
2023-01-12T21:14:54.559Z,1.73
2023-01-12T21:17:21.762Z,1.17
2023-01-12T21:19:48.645Z,0.60
2023-01-12T21:22:15.380Z,0.88
2023-01-12T21:24:42.090Z,0.95
2023-01-12T21:27:09.043Z,3.65
2023-01-12T21:29:35.860Z,0.43
2023-01-12T21:32:02.499Z,0.63
2023-01-12T21:34:29.198Z,0.40
2023-01-12T21:36:55.973Z,2.05
2023-01-12T21:39:22.615Z,0.40
2023-01-12T21:42:08.048Z,0.75
2023-01-12T21:44:34.809Z,1.70
2023-01-12T21:47:01.834Z,0.38
2023-01-12T21:49:28.475Z,1.15
2023-01-12T21:51:55.108Z,0.80
2023-01-12T21:54:22.630Z,1.52
2023-01-12T21:56:49.365Z,0.88
2023-01-12T21:59:16.145Z,2.45
2023-01-12T22:01:42.896Z,1.23
2023-01-12T22:04:09.739Z,0.60
2023-01-12T22:06:36.551Z,0.98
2023-01-12T22:09:03.317Z,0.95
2023-01-12T22:11:30.397Z,3.60
2023-01-12T22:13:57.038Z,1.35
2023-01-12T22:16:23.787Z,1.35
2023-01-12T22:18:50.769Z,0.60
2023-01-12T22:21:19.300Z,0.80
2023-01-12T22:23:46.668Z,1.25
2023-01-12T22:26:15.160Z,0.70
2023-01-12T22:28:43.936Z,0.98
2023-01-12T22:31:12.889Z,1.65
2023-01-12T22:33:40.044Z,0.40
2023-01-12T22:36:08.057Z,0.75
2023-01-12T22:38:34.753Z,0.57
2023-01-12T22:41:09.144Z,0.52
2023-01-12T22:43:43.032Z,1.58
2023-01-12T22:46:23.908Z,0.55
2023-01-12T22:48:55.725Z,0.40
2023-01-12T22:51:27.651Z,0.60
2023-01-12T22:53:55.873Z,0.77
2023-01-12T22:56:23.009Z,0.43
2023-01-12T22:58:51.602Z,0.80
2023-01-12T23:01:20.049Z,0.32
2023-01-12T23:03:48.467Z,0.77
2023-01-12T23:06:17.074Z,0.73
2023-01-12T23:08:45.427Z,0.57
2023-01-12T23:11:24.369Z,0.35
2023-01-12T23:13:52.603Z,1.08
2023-01-12T23:16:19.886Z,0.30
2023-01-12T23:18:47.455Z,0.82
2023-01-12T23:21:19.557Z,1.05
2023-01-12T23:23:48.954Z,0.47
2023-01-12T23:26:22.944Z,0.85
2023-01-12T23:28:52.815Z,1.08
2023-01-12T23:31:21.885Z,1.80
2023-01-12T23:33:49.203Z,0.43
2023-01-12T23:36:20.660Z,0.85
2023-01-12T23:38:47.637Z,0.68
2023-01-12T23:41:18.510Z,0.47
2023-01-12T23:43:50.113Z,0.40
2023-01-12T23:46:17.707Z,0.65
2023-01-12T23:48:44.594Z,0.85
2023-01-12T23:51:11.532Z,0.88
2023-01-12T23:53:38.499Z,1.38
2023-01-12T23:56:07.548Z,1.33
2023-01-12T23:58:34.641Z,0.40
